Terminal Aerodrome Forecast
Issued by NWS

Current Version | Previous Version | Text Only | Print | Product List | Glossary On
Versions: 1 2 3 4 5 6 7 8 9 10 11 12 13 14 15 16 17 18 19 20
000
FTUS41 KBTV 211138
TAFSLK
TAF
KSLK 211138Z 2112/2212 22006KT P6SM SKC WS020/23040KT
     FM211400 21012G19KT P6SM FEW250 WS020/22040KT
     FM212300 21012KT P6SM SCT200 WS020/23040KT
     FM220100 22011KT P6SM SCT140
     FM220400 22009KT P6SM VCSH BKN050
     FM220600 22007KT 2SM -SHSN BR OVC040
     FM221100 26006KT 2SM -SHSN BR OVC015=

USA.gov is the U.S. government's official web portal to all federal, state and local government web resources and services.